createdAt,value
2018-12-17T00:01:12.921Z,1.20
2018-12-17T00:03:44.134Z,1.20
2018-12-17T00:06:15.176Z,1.20
2018-12-17T00:08:44.842Z,1.20
2018-12-17T00:11:14.306Z,1.20
2018-12-17T00:13:43.485Z,1.20
2018-12-17T00:16:12.710Z,1.10
2018-12-17T00:18:41.861Z,1.10
2018-12-17T00:21:11.021Z,1.10
2018-12-17T00:23:40.133Z,1.10
2018-12-17T00:26:09.225Z,1.10
2018-12-17T00:28:38.377Z,1.10
2018-12-17T00:31:07.533Z,1.10
2018-12-17T00:33:36.721Z,1.10
2018-12-17T00:36:05.876Z,1.10
2018-12-17T00:38:35.015Z,1.10
2018-12-17T00:41:04.159Z,1.10
2018-12-17T00:43:33.607Z,1.10
2018-12-17T00:46:02.717Z,1.10
2018-12-17T00:48:32.345Z,1.10
2018-12-17T00:51:01.482Z,1.10
2018-12-17T00:53:30.533Z,1.10
2018-12-17T00:55:59.715Z,1.10
2018-12-17T00:58:28.887Z,1.10
2018-12-17T01:00:58.244Z,1.00
2018-12-17T01:03:28.384Z,1.00
2018-12-17T01:05:57.497Z,1.00
2018-12-17T01:08:26.691Z,1.00
2018-12-17T01:10:55.815Z,1.00
2018-12-17T01:13:24.988Z,1.00
2018-12-17T01:15:54.144Z,1.00
2018-12-17T01:18:23.396Z,1.00
2018-12-17T01:20:52.594Z,1.00
2018-12-17T01:23:21.704Z,1.00
2018-12-17T01:25:51.278Z,1.10
2018-12-17T01:28:22.293Z,1.00
2018-12-17T01:30:51.642Z,1.00
2018-12-17T01:33:20.792Z,1.00
2018-12-17T01:35:49.964Z,0.90
2018-12-17T01:38:19.134Z,1.00
2018-12-17T01:40:48.360Z,1.00
2018-12-17T01:43:17.479Z,1.00
2018-12-17T01:45:46.628Z,1.00
2018-12-17T01:48:15.755Z,1.00
2018-12-17T01:50:44.921Z,1.00
2018-12-17T01:53:14.029Z,1.00
2018-12-17T01:55:43.274Z,1.00
2018-12-17T01:58:12.482Z,1.00
2018-12-17T02:00:41.810Z,1.00
2018-12-17T02:03:11.041Z,1.00
2018-12-17T02:05:41.181Z,1.00
2018-12-17T02:08:10.335Z,1.00
2018-12-17T02:10:39.576Z,1.00
2018-12-17T02:13:08.627Z,1.00
2018-12-17T02:15:37.819Z,1.00
2018-12-17T02:18:06.979Z,1.00
2018-12-17T02:20:36.158Z,1.00
2018-12-17T02:23:05.371Z,1.00
2018-12-17T02:25:34.527Z,1.00
2018-12-17T02:28:03.669Z,1.00
2018-12-17T02:30:32.836Z,1.00
2018-12-17T02:33:01.990Z,1.00
2018-12-17T02:35:31.135Z,1.00
2018-12-17T02:38:00.296Z,1.00
2018-12-17T02:40:29.427Z,0.90
2018-12-17T02:42:58.561Z,0.90
2018-12-17T02:45:27.645Z,0.90
2018-12-17T02:47:56.819Z,0.90
2018-12-17T02:50:26.153Z,0.90
2018-12-17T02:52:55.246Z,0.90
2018-12-17T02:55:25.389Z,1.00
2018-12-17T02:57:54.527Z,0.90
2018-12-17T03:00:23.624Z,0.90
2018-12-17T03:02:52.779Z,0.90
2018-12-17T03:05:22.011Z,0.90
2018-12-17T03:07:51.179Z,0.90
2018-12-17T03:10:20.314Z,0.90
2018-12-17T03:12:49.458Z,0.80
2018-12-17T03:15:18.581Z,0.80
2018-12-17T03:17:47.780Z,0.80
2018-12-17T03:20:16.924Z,0.80
2018-12-17T03:22:46.079Z,0.80
2018-12-17T03:25:15.203Z,0.70
2018-12-17T03:27:44.359Z,0.60
2018-12-17T03:30:13.614Z,0.60
2018-12-17T03:32:42.772Z,0.50
2018-12-17T03:35:12.386Z,0.50
2018-12-17T03:37:41.543Z,0.50
2018-12-17T03:40:10.925Z,0.60
2018-12-17T03:42:40.070Z,0.60
2018-12-17T03:45:09.419Z,0.50
2018-12-17T03:47:38.590Z,0.60
2018-12-17T03:50:09.851Z,0.60
2018-12-17T03:52:38.959Z,0.60
2018-12-17T03:55:08.199Z,0.60
2018-12-17T03:57:37.471Z,0.50
2018-12-17T04:00:07.255Z,0.50
2018-12-17T04:02:36.415Z,0.40
2018-12-17T04:05:06.424Z,0.40
2018-12-17T04:07:36.622Z,0.40
2018-12-17T04:10:06.293Z,0.40
2018-12-17T04:12:35.452Z,0.40
2018-12-17T04:15:04.952Z,0.40
2018-12-17T04:17:35.205Z,0.40
2018-12-17T04:20:04.558Z,0.40
2018-12-17T04:22:33.695Z,0.30
2018-12-17T04:25:03.050Z,0.30
2018-12-17T04:27:33.242Z,0.30
2018-12-17T04:30:02.376Z,0.30
2018-12-17T04:32:32.640Z,0.40
2018-12-17T04:35:01.748Z,0.40
2018-12-17T04:37:31.997Z,0.40
2018-12-17T04:40:01.196Z,0.40
2018-12-17T04:42:30.343Z,0.40
2018-12-17T04:44:59.575Z,0.40
2018-12-17T04:47:28.721Z,0.50
2018-12-17T04:49:57.854Z,0.40
2018-12-17T04:52:27.039Z,0.40
2018-12-17T04:54:56.152Z,0.40
2018-12-17T04:57:25.276Z,0.40
2018-12-17T04:59:54.576Z,0.50
2018-12-17T05:02:23.722Z,0.50
2018-12-17T05:04:52.860Z,0.50
2018-12-17T05:07:21.988Z,0.50
2018-12-17T05:09:51.218Z,0.50
2018-12-17T05:12:20.547Z,0.60
2018-12-17T05:14:49.662Z,0.60
2018-12-17T05:17:18.971Z,0.60
2018-12-17T05:19:48.121Z,0.60
2018-12-17T05:22:17.250Z,0.60
2018-12-17T05:24:47.413Z,0.70
2018-12-17T05:27:17.259Z,0.70
2018-12-17T05:29:46.371Z,0.70
2018-12-17T05:32:15.468Z,0.80
2018-12-17T05:34:44.643Z,0.80
2018-12-17T05:37:14.501Z,0.80
2018-12-17T05:39:43.645Z,0.80
2018-12-17T05:42:12.797Z,0.80
2018-12-17T05:44:41.919Z,0.80
2018-12-17T05:47:11.045Z,0.80
2018-12-17T05:49:40.152Z,0.70
2018-12-17T05:52:09.253Z,0.70
2018-12-17T05:54:38.359Z,0.60
2018-12-17T05:57:07.549Z,0.60
2018-12-17T05:59:36.666Z,0.60
2018-12-17T06:02:05.870Z,0.70
2018-12-17T06:04:35.009Z,0.70
2018-12-17T06:07:04.228Z,0.70
2018-12-17T06:09:33.688Z,0.70
2018-12-17T06:12:02.968Z,0.70
2018-12-17T06:14:32.300Z,0.80
2018-12-17T06:17:01.431Z,0.70
2018-12-17T06:19:30.595Z,0.70
2018-12-17T06:21:59.709Z,0.70
2018-12-17T06:24:28.877Z,0.80
2018-12-17T06:26:58.057Z,0.80
2018-12-17T06:29:27.177Z,0.80
2018-12-17T06:31:56.377Z,0.70
2018-12-17T06:34:25.492Z,0.70
2018-12-17T06:36:54.641Z,0.60
2018-12-17T06:39:23.963Z,0.60
2018-12-17T06:41:53.121Z,0.60
2018-12-17T06:44:22.251Z,0.60
2018-12-17T06:46:51.485Z,0.50
2018-12-17T06:49:20.649Z,0.50
2018-12-17T06:51:50.189Z,0.40
2018-12-17T06:54:20.141Z,0.30
2018-12-17T06:56:49.318Z,0.30
2018-12-17T06:59:18.481Z,0.30
2018-12-17T07:01:48.223Z,0.30
2018-12-17T07:04:17.347Z,0.30
2018-12-17T07:06:46.487Z,0.30
2018-12-17T07:09:16.143Z,0.30
2018-12-17T07:11:45.261Z,0.30
2018-12-17T07:14:14.547Z,0.30
2018-12-17T07:16:44.875Z,0.40
2018-12-17T07:19:14.025Z,0.40
2018-12-17T07:21:43.144Z,0.50
2018-12-17T07:24:12.303Z,0.50
2018-12-17T07:26:41.472Z,0.50
2018-12-17T07:29:10.631Z,0.50
2018-12-17T07:31:39.815Z,0.50
2018-12-17T07:34:09.013Z,0.60
2018-12-17T07:36:38.159Z,0.60
2018-12-17T07:39:08.935Z,0.70
2018-12-17T07:41:38.211Z,0.80
2018-12-17T07:44:07.404Z,0.80
2018-12-17T07:46:36.570Z,0.90
2018-12-17T07:49:05.739Z,0.90
2018-12-17T07:51:34.911Z,1.00
2018-12-17T07:54:04.077Z,1.00
2018-12-17T07:56:33.258Z,1.00
2018-12-17T07:59:02.505Z,1.00
2018-12-17T08:01:31.685Z,1.10
2018-12-17T08:04:00.851Z,1.10
2018-12-17T08:06:30.032Z,1.20
2018-12-17T08:08:59.184Z,1.20
2018-12-17T08:11:28.284Z,1.30
2018-12-17T08:13:57.481Z,1.30
2018-12-17T08:16:26.769Z,1.30
2018-12-17T08:18:55.964Z,1.30
2018-12-17T08:21:25.150Z,1.30
2018-12-17T08:23:54.239Z,1.30
2018-12-17T08:26:23.447Z,1.30
2018-12-17T08:28:52.576Z,1.30
2018-12-17T08:31:21.711Z,1.40
2018-12-17T08:33:50.906Z,1.40
2018-12-17T08:36:20.015Z,1.40
2018-12-17T08:38:49.169Z,1.40
2018-12-17T08:41:18.347Z,1.50
2018-12-17T08:43:47.503Z,1.50
2018-12-17T08:46:18.515Z,1.50
2018-12-17T08:48:47.711Z,1.50
2018-12-17T08:51:17.123Z,1.50
2018-12-17T08:53:46.312Z,1.50
2018-12-17T08:56:16.564Z,1.50
2018-12-17T08:58:45.703Z,1.50
2018-12-17T09:01:15.008Z,1.50
2018-12-17T09:03:44.184Z,1.50
2018-12-17T09:06:13.416Z,1.50
2018-12-17T09:08:42.610Z,1.50
2018-12-17T09:11:11.708Z,1.50
2018-12-17T09:13:40.894Z,1.60
2018-12-17T09:16:10.052Z,1.60
2018-12-17T09:18:40.286Z,1.60
2018-12-17T09:21:09.556Z,1.60
2018-12-17T09:23:38.684Z,1.70
2018-12-17T09:26:07.827Z,1.70
2018-12-17T09:28:37.005Z,1.70
2018-12-17T09:31:06.155Z,1.70
2018-12-17T09:33:36.466Z,1.80
2018-12-17T09:36:05.600Z,1.80
2018-12-17T09:38:34.734Z,1.80
2018-12-17T09:41:03.980Z,1.90
2018-12-17T09:43:33.210Z,1.90
2018-12-17T09:46:02.330Z,2.00
2018-12-17T09:48:31.517Z,2.00
2018-12-17T09:51:00.700Z,2.00
2018-12-17T09:53:29.884Z,2.00
2018-12-17T09:55:59.077Z,2.00
2018-12-17T09:58:28.379Z,2.00
2018-12-17T10:00:57.485Z,2.10
2018-12-17T10:03:26.826Z,2.10
2018-12-17T10:05:55.972Z,2.20
2018-12-17T10:08:25.149Z,2.10
2018-12-17T10:10:54.302Z,2.10
2018-12-17T10:13:23.512Z,2.20
2018-12-17T10:15:52.812Z,2.20
2018-12-17T10:18:21.944Z,2.20
2018-12-17T10:20:51.258Z,2.20
2018-12-17T10:23:20.502Z,2.20
2018-12-17T10:25:49.594Z,2.30
2018-12-17T10:28:18.795Z,2.40
2018-12-17T10:30:47.911Z,2.40
2018-12-17T10:33:17.066Z,2.50
2018-12-17T10:35:46.226Z,2.50
2018-12-17T10:38:16.916Z,2.50
2018-12-17T10:40:46.133Z,2.40
2018-12-17T10:43:16.504Z,2.40
2018-12-17T10:45:45.670Z,2.50
2018-12-17T10:48:14.780Z,2.40
2018-12-17T10:50:43.914Z,2.40
2018-12-17T10:53:13.443Z,2.50
2018-12-17T10:55:42.603Z,2.40
2018-12-17T10:58:11.788Z,2.40
2018-12-17T11:00:46.522Z,2.50
2018-12-17T11:03:20.657Z,2.50
2018-12-17T11:05:50.437Z,2.40
2018-12-17T11:08:19.555Z,2.40
2018-12-17T11:10:48.661Z,2.50
2018-12-17T11:13:17.873Z,2.40
2018-12-17T11:15:47.037Z,2.40
2018-12-17T11:18:16.225Z,2.40
2018-12-17T11:20:46.563Z,2.40
2018-12-17T11:23:18.169Z,2.30
2018-12-17T11:25:47.582Z,2.30
2018-12-17T11:28:16.757Z,2.30
2018-12-17T11:30:46.600Z,2.30
2018-12-17T11:33:16.203Z,2.30
2018-12-17T11:35:45.386Z,2.30
2018-12-17T11:38:14.701Z,2.30
2018-12-17T11:40:45.070Z,2.30
2018-12-17T11:43:14.296Z,2.20
2018-12-17T11:45:43.485Z,2.20
2018-12-17T11:48:12.602Z,2.20
2018-12-17T11:50:41.809Z,2.20
2018-12-17T11:53:10.959Z,2.20
2018-12-17T11:55:40.109Z,2.20
2018-12-17T11:58:14.608Z,2.20
2018-12-17T12:01:18.088Z,2.20
2018-12-17T12:03:47.357Z,2.20
2018-12-17T12:06:16.651Z,2.20
2018-12-17T12:08:45.827Z,2.30
2018-12-17T12:11:15.053Z,2.30
2018-12-17T12:13:44.223Z,2.30
2018-12-17T12:16:13.453Z,2.30
2018-12-17T12:18:42.603Z,2.40
2018-12-17T12:21:11.778Z,2.40
2018-12-17T12:23:41.887Z,2.50
2018-12-17T12:26:11.167Z,2.50
2018-12-17T12:28:40.313Z,2.60
2018-12-17T12:31:09.472Z,2.60
2018-12-17T12:33:38.677Z,2.50
2018-12-17T12:36:07.852Z,2.60
2018-12-17T12:38:37.035Z,2.50
2018-12-17T12:41:06.502Z,2.50
2018-12-17T12:43:35.684Z,2.50
2018-12-17T12:46:04.875Z,2.50
2018-12-17T12:48:34.041Z,2.50
2018-12-17T12:51:03.203Z,2.50
2018-12-17T12:53:32.342Z,2.50
2018-12-17T12:56:01.508Z,2.50
2018-12-17T12:58:30.732Z,2.50
2018-12-17T13:00:59.852Z,2.50
2018-12-17T13:03:29.029Z,2.40
2018-12-17T13:05:58.195Z,2.40
2018-12-17T13:08:28.373Z,2.40
2018-12-17T13:10:57.531Z,2.40
2018-12-17T13:13:26.658Z,2.30
2018-12-17T13:15:55.770Z,2.30
2018-12-17T13:18:24.934Z,2.30
2018-12-17T13:20:54.087Z,2.30
2018-12-17T13:23:23.277Z,2.30
2018-12-17T13:25:53.044Z,2.40
2018-12-17T13:28:22.243Z,2.40
2018-12-17T13:30:51.380Z,2.30
2018-12-17T13:33:20.556Z,2.30
2018-12-17T13:35:49.708Z,2.30
2018-12-17T13:38:19.034Z,2.30
2018-12-17T13:40:48.109Z,2.20
2018-12-17T13:43:17.316Z,2.20
2018-12-17T13:45:46.421Z,2.00
2018-12-17T13:48:15.621Z,2.00
2018-12-17T13:50:44.769Z,1.90
2018-12-17T13:53:19.406Z,1.90
2018-12-17T13:55:48.505Z,1.80
2018-12-17T13:58:17.646Z,1.70
2018-12-17T14:00:46.915Z,1.70
2018-12-17T14:03:16.082Z,1.70
2018-12-17T14:05:45.360Z,1.60
2018-12-17T14:08:14.752Z,1.60
2018-12-17T14:10:49.430Z,1.60
2018-12-17T14:13:18.708Z,1.60
2018-12-17T14:15:54.350Z,1.60
2018-12-17T14:18:28.860Z,1.50
2018-12-17T14:22:07.091Z,1.50
2018-12-17T14:24:36.271Z,1.50
2018-12-17T14:27:05.532Z,1.50
2018-12-17T14:29:35.050Z,1.50
2018-12-17T14:32:05.251Z,1.50
2018-12-17T14:34:34.624Z,1.40
2018-12-17T14:37:03.989Z,1.40
2018-12-17T14:39:33.161Z,1.40
2018-12-17T14:42:02.331Z,1.40
2018-12-17T14:44:34.925Z,1.30
2018-12-17T14:47:04.250Z,1.30
2018-12-17T14:49:33.421Z,1.30
2018-12-17T14:52:02.596Z,1.20
2018-12-17T14:54:31.774Z,1.20
2018-12-17T14:57:01.005Z,1.20
2018-12-17T14:59:30.209Z,1.10
2018-12-17T15:01:59.422Z,1.10
2018-12-17T15:04:28.633Z,1.10
2018-12-17T15:06:57.921Z,1.00
2018-12-17T15:09:27.133Z,1.00
2018-12-17T15:11:56.287Z,0.90
2018-12-17T15:14:25.477Z,0.80
2018-12-17T15:16:55.661Z,0.80
2018-12-17T15:19:24.881Z,0.80
2018-12-17T15:21:54.051Z,0.80
2018-12-17T15:24:23.219Z,0.70
2018-12-17T15:26:52.417Z,0.80
2018-12-17T15:29:21.820Z,0.70
2018-12-17T15:31:51.076Z,0.70
2018-12-17T15:34:20.243Z,0.60
2018-12-17T15:36:49.391Z,0.70
2018-12-17T15:39:18.601Z,0.60
2018-12-17T15:41:47.812Z,0.60
2018-12-17T15:44:17.071Z,0.60
2018-12-17T15:46:46.320Z,0.50
2018-12-17T15:49:15.589Z,0.50
2018-12-17T15:51:44.961Z,0.40
2018-12-17T15:54:14.248Z,0.40
2018-12-17T15:56:43.379Z,0.30
2018-12-17T15:59:12.932Z,0.30
2018-12-17T16:01:42.065Z,0.20
2018-12-17T16:04:11.225Z,0.20
2018-12-17T16:06:40.500Z,0.10
2018-12-17T16:09:09.798Z,0.10
2018-12-17T16:11:39.080Z,0.10
2018-12-17T16:14:08.433Z,0.00
2018-12-17T16:16:37.624Z,0.00
2018-12-17T16:19:06.786Z,-0.10
2018-12-17T16:21:36.040Z,-0.10
2018-12-17T16:24:05.218Z,-0.10
2018-12-17T16:26:34.467Z,-0.10
2018-12-17T16:29:03.815Z,-0.10
2018-12-17T16:31:33.204Z,-0.10
2018-12-17T16:34:02.603Z,-0.10
2018-12-17T16:36:32.260Z,-0.20
2018-12-17T16:39:01.459Z,-0.20
2018-12-17T16:41:30.834Z,-0.20
2018-12-17T16:46:59.812Z,-0.30
2018-12-17T16:49:29.009Z,-0.40
2018-12-17T16:51:59.256Z,-0.40
2018-12-17T16:54:28.674Z,-0.40
2018-12-17T16:56:58.929Z,-0.50
2018-12-17T16:59:28.007Z,-0.50
2018-12-17T17:02:04.281Z,-0.60
2018-12-17T17:04:28.343Z,-0.60
2018-12-17T17:06:57.500Z,-0.70
2018-12-17T17:09:26.651Z,-0.70
2018-12-17T17:11:55.848Z,-0.70
2018-12-17T17:14:25.025Z,-0.70
2018-12-17T17:16:54.364Z,-0.80
2018-12-17T17:19:23.499Z,-0.80
2018-12-17T17:21:52.856Z,-0.80
2018-12-17T17:24:22.035Z,-0.80
2018-12-17T17:26:51.294Z,-0.80
2018-12-17T17:29:20.440Z,-0.90
2018-12-17T17:31:50.888Z,-0.90
2018-12-17T17:34:20.145Z,-1.00
2018-12-17T17:36:49.316Z,-1.00
2018-12-17T17:39:18.492Z,-1.00
2018-12-17T17:41:47.675Z,-1.00
2018-12-17T17:44:16.825Z,-1.00
2018-12-17T17:46:45.939Z,-1.10
2018-12-17T17:49:15.210Z,-1.00
2018-12-17T17:51:44.341Z,-1.00
2018-12-17T17:54:13.789Z,-1.00
2018-12-17T17:56:42.955Z,-1.10
2018-12-17T17:59:12.096Z,-1.10
2018-12-17T18:01:41.237Z,-1.10
2018-12-17T18:04:10.374Z,-1.10
2018-12-17T18:06:39.672Z,-1.10
2018-12-17T18:09:10.034Z,-1.10
2018-12-17T18:11:39.222Z,-1.20
2018-12-17T18:14:08.370Z,-1.20
2018-12-17T18:16:37.557Z,-1.20
2018-12-17T18:19:06.737Z,-1.20
2018-12-17T18:21:35.910Z,-1.20
2018-12-17T18:24:05.080Z,-1.20
2018-12-17T18:26:34.244Z,-1.30
2018-12-17T18:30:32.603Z,-1.30
2018-12-17T18:33:01.791Z,-1.30
2018-12-17T18:35:31.044Z,-1.40
2018-12-17T18:38:00.182Z,-1.40
2018-12-17T18:40:29.373Z,-1.40
2018-12-17T18:42:58.540Z,-1.30
2018-12-17T18:45:27.735Z,-1.40
2018-12-17T18:47:56.870Z,-1.40
2018-12-17T18:50:26.190Z,-1.40
2018-12-17T18:52:55.295Z,-1.50
2018-12-17T18:55:24.544Z,-1.50
2018-12-17T18:57:53.722Z,-1.50
2018-12-17T19:00:22.818Z,-1.60
2018-12-17T19:02:52.030Z,-1.60
2018-12-17T19:05:21.112Z,-1.60
2018-12-17T19:09:19.716Z,-1.60
2018-12-17T19:11:48.900Z,-1.60
2018-12-17T19:14:18.070Z,-1.70
2018-12-17T19:16:47.300Z,-1.70
2018-12-17T19:19:16.468Z,-1.80
2018-12-17T19:21:45.666Z,-1.80
2018-12-17T19:24:14.872Z,-1.80
2018-12-17T19:26:44.004Z,-1.80
2018-12-17T19:29:13.137Z,-1.80
2018-12-17T19:31:42.330Z,-1.80
2018-12-17T19:34:11.580Z,-1.80
2018-12-17T19:36:40.777Z,-1.80
2018-12-17T19:39:09.926Z,-1.80
2018-12-17T19:41:41.072Z,-1.80
2018-12-17T19:44:10.383Z,-1.90
2018-12-17T19:46:39.664Z,-1.90
2018-12-17T19:49:08.885Z,-2.00
2018-12-17T19:51:38.079Z,-2.00
2018-12-17T19:54:07.205Z,-2.00
2018-12-17T19:56:36.438Z,-2.00
2018-12-17T19:59:05.584Z,-2.00
2018-12-17T20:01:34.720Z,-2.10
2018-12-17T20:04:03.868Z,-2.10
2018-12-17T20:06:33.059Z,-2.10
2018-12-17T20:09:02.256Z,-2.10
2018-12-17T20:11:32.690Z,-2.10
2018-12-17T20:14:01.801Z,-2.10
2018-12-17T20:16:30.934Z,-2.10
2018-12-17T20:19:00.127Z,-2.10
2018-12-17T20:21:29.277Z,-2.10
2018-12-17T20:23:58.442Z,-2.10
2018-12-17T20:26:27.611Z,-2.20
2018-12-17T20:28:56.723Z,-2.20
2018-12-17T20:31:25.935Z,-2.20
2018-12-17T20:33:55.150Z,-2.30
2018-12-17T20:36:24.413Z,-2.30
2018-12-17T20:38:53.674Z,-2.30
2018-12-17T20:41:22.879Z,-2.30
2018-12-17T20:43:52.058Z,-2.30
2018-12-17T20:46:21.277Z,-2.30
2018-12-17T20:48:50.442Z,-2.30
2018-12-17T20:51:19.627Z,-2.30
2018-12-17T20:53:49.976Z,-2.30
2018-12-17T20:56:19.664Z,-2.30
2018-12-17T20:58:48.871Z,-2.30
2018-12-17T21:01:18.085Z,-2.40
2018-12-17T21:03:47.275Z,-2.40
2018-12-17T21:06:16.942Z,-2.40
2018-12-17T21:08:46.207Z,-2.40
2018-12-17T21:11:15.485Z,-2.40
2018-12-17T21:13:44.654Z,-2.30
2018-12-17T21:16:14.202Z,-2.30
2018-12-17T21:18:43.359Z,-2.30
2018-12-17T21:21:12.543Z,-2.30
2018-12-17T21:23:42.586Z,-2.20
2018-12-17T21:26:11.873Z,-2.30
2018-12-17T21:28:41.079Z,-2.30
2018-12-17T21:31:10.366Z,-2.30
2018-12-17T21:33:39.569Z,-2.40
2018-12-17T21:36:08.803Z,-2.40
2018-12-17T21:38:38.091Z,-2.40
2018-12-17T21:41:07.359Z,-2.40
2018-12-17T21:43:36.650Z,-2.40
2018-12-17T21:46:05.813Z,-2.40
2018-12-17T21:48:35.094Z,-2.40
2018-12-17T21:51:04.345Z,-2.40
2018-12-17T21:53:33.641Z,-2.40
2018-12-17T21:56:02.834Z,-2.40
2018-12-17T21:58:32.093Z,-2.40
2018-12-17T22:01:01.267Z,-2.40
2018-12-17T22:03:31.533Z,-2.40
2018-12-17T22:06:00.740Z,-2.40
2018-12-17T22:08:29.916Z,-2.40
2018-12-17T22:10:59.236Z,-2.40
2018-12-17T22:13:28.405Z,-2.50
2018-12-17T22:15:57.560Z,-2.50
2018-12-17T22:18:26.742Z,-2.50
2018-12-17T22:20:56.100Z,-2.50
2018-12-17T22:23:25.216Z,-2.50
2018-12-17T22:25:54.515Z,-2.50
2018-12-17T22:28:23.694Z,-2.50
2018-12-17T22:30:52.990Z,-2.50
2018-12-17T22:33:22.124Z,-2.50
2018-12-17T22:35:51.308Z,-2.50
2018-12-17T22:38:20.476Z,-2.50
2018-12-17T22:40:49.679Z,-2.50
2018-12-17T22:44:48.406Z,-2.60
2018-12-17T22:47:17.525Z,-2.60
2018-12-17T22:49:46.669Z,-2.60
2018-12-17T22:52:15.833Z,-2.50
2018-12-17T22:54:45.172Z,-2.50
2018-12-17T22:57:14.552Z,-2.50
2018-12-17T22:59:43.909Z,-2.50
2018-12-17T23:02:13.081Z,-2.50
2018-12-17T23:04:42.220Z,-2.50
2018-12-17T23:07:12.477Z,-2.50
2018-12-17T23:09:53.156Z,-2.50
2018-12-17T23:12:33.506Z,-2.50
2018-12-17T23:15:14.020Z,-2.50
2018-12-17T23:17:42.700Z,-2.40
2018-12-17T23:20:11.967Z,-2.40
2018-12-17T23:22:43.862Z,-2.40
2018-12-17T23:25:15.114Z,-2.30
2018-12-17T23:27:49.794Z,-2.30
2018-12-17T23:30:21.262Z,-2.30
2018-12-17T23:32:50.496Z,-2.30
2018-12-17T23:35:19.709Z,-2.20
2018-12-17T23:37:48.917Z,-2.10
2018-12-17T23:40:18.054Z,-2.10
2018-12-17T23:42:48.336Z,-2.00
2018-12-17T23:45:20.394Z,-2.00
2018-12-17T23:47:49.731Z,-2.00
2018-12-17T23:50:18.872Z,-1.90
2018-12-17T23:52:48.044Z,-1.90
2018-12-17T23:55:17.164Z,-1.80
2018-12-17T23:57:46.360Z,-1.80
